Stony Brook, Massachusetts
Current Conditions -  °F | °C
As of 12:56 PM on Sunday 25 Jan 2015 (Local Time) from KBED Reporting Station
Scattered Clouds Scattered Clouds  
Wind Chill: 25°   Ceiling: Unl
Heat Index: 34°   Visibility: 10mi
Dew Point: 18°   Wind: 14mph
Humidity: 52%   Direction: 310°NW
Pressure: 29.62"   Gusts: 25mph
Location:  42.359°N, 71.3°W
Report Text: KBED 251756Z 31012G22KT 10SM SCT049 01/M08 A2962 RMK AO2 SLP046 T00111078 10028 21011 51022
Loading
Personal Weather Stations






























Interactive Weather Map New forecast layout! Learn more

10-Day Weather Forecast

Advertisements
Track Severe Weather on mobile